createdAt,value
2022-10-14T00:01:35.289Z,34.03
2022-10-14T00:04:04.808Z,35.60
2022-10-14T00:06:35.128Z,33.63
2022-10-14T00:09:08.094Z,35.05
2022-10-14T00:11:38.895Z,34.60
2022-10-14T00:14:11.746Z,35.03
2022-10-14T00:16:43.175Z,34.13
2022-10-14T00:19:13.862Z,33.38
2022-10-14T00:21:45.710Z,34.08
2022-10-14T00:24:19.787Z,34.45
2022-10-14T00:26:48.981Z,34.33
2022-10-14T00:29:20.248Z,36.05
2022-10-14T00:31:49.876Z,36.55
2022-10-14T00:34:19.826Z,37.08
2022-10-14T00:36:49.151Z,35.20
2022-10-14T00:39:20.878Z,35.97
2022-10-14T00:41:50.033Z,36.65
2022-10-14T00:44:18.962Z,35.90
2022-10-14T00:46:49.996Z,35.10
2022-10-14T00:49:27.383Z,36.85
2022-10-14T00:52:12.883Z,34.05
2022-10-14T00:54:53.106Z,35.28
2022-10-14T00:57:23.877Z,35.33
2022-10-14T00:59:59.823Z,35.85
2022-10-14T01:02:29.531Z,35.63
2022-10-14T01:05:00.029Z,34.80
2022-10-14T01:07:53.783Z,36.17
2022-10-14T01:10:32.241Z,35.88
2022-10-14T01:13:25.464Z,36.42
2022-10-14T01:16:03.976Z,36.45
2022-10-14T01:18:46.347Z,35.85
2022-10-14T01:21:30.251Z,35.78
2022-10-14T01:24:17.261Z,35.47
2022-10-14T01:27:02.380Z,37.50
2022-10-14T01:29:47.957Z,38.55
2022-10-14T01:33:08.030Z,40.30
2022-10-14T01:36:03.739Z,37.20
2022-10-14T01:38:56.610Z,38.78
2022-10-14T01:41:41.552Z,37.75
2022-10-14T01:44:13.457Z,40.38
2022-10-14T01:46:47.792Z,41.28
2022-10-14T01:49:25.463Z,42.95
2022-10-14T01:52:03.554Z,41.97
2022-10-14T01:54:37.030Z,43.03
2022-10-14T01:57:15.289Z,42.42
2022-10-14T01:59:47.159Z,44.65
2022-10-14T02:02:16.625Z,46.08
2022-10-14T02:04:46.517Z,45.92
2022-10-14T02:07:33.596Z,46.75
2022-10-14T02:10:28.848Z,48.45
2022-10-14T02:13:40.770Z,47.90
2022-10-14T02:16:23.589Z,48.90
2022-10-14T02:19:03.062Z,47.55
2022-10-14T02:21:59.590Z,48.40
2022-10-14T02:24:41.475Z,46.08
2022-10-14T02:27:17.651Z,46.65
2022-10-14T02:29:48.819Z,46.72
2022-10-14T02:32:21.593Z,46.28
2022-10-14T02:34:56.357Z,47.47
2022-10-14T02:37:28.841Z,46.47
2022-10-14T02:40:09.335Z,48.83
2022-10-14T02:42:38.510Z,47.85
2022-10-14T02:45:08.955Z,47.83
2022-10-14T02:47:38.322Z,50.58
2022-10-14T02:50:08.191Z,51.30
2022-10-14T02:52:37.324Z,50.97
2022-10-14T02:55:06.852Z,50.80
2022-10-14T02:57:36.639Z,50.35
2022-10-14T03:00:07.518Z,50.97
2022-10-14T03:02:37.636Z,51.22
2022-10-14T03:05:07.558Z,49.88
2022-10-14T03:07:36.835Z,50.10
2022-10-14T03:10:10.330Z,49.92
2022-10-14T03:12:39.791Z,50.03
2022-10-14T03:15:15.385Z,51.47
2022-10-14T03:17:44.596Z,51.03
2022-10-14T03:20:14.643Z,52.65
2022-10-14T03:22:49.325Z,53.20
2022-10-14T03:25:20.050Z,51.22
2022-10-14T03:28:05.971Z,51.33
2022-10-14T03:30:56.539Z,51.10
2022-10-14T03:33:41.443Z,51.50
2022-10-14T03:36:14.021Z,50.17
2022-10-14T03:38:53.731Z,50.72
2022-10-14T03:41:35.624Z,49.38
2022-10-14T03:44:05.183Z,53.72
2022-10-14T03:46:36.623Z,63.47
2022-10-14T03:49:05.969Z,63.03
2022-10-14T03:51:35.302Z,62.53
2022-10-14T03:54:14.948Z,62.60
2022-10-14T03:56:44.200Z,65.13
2022-10-14T03:59:14.154Z,64.25
2022-10-14T04:01:48.431Z,60.17
2022-10-14T04:04:26.864Z,55.22
2022-10-14T04:06:57.121Z,54.03
2022-10-14T04:09:28.231Z,51.88
2022-10-14T04:12:00.020Z,52.25
2022-10-14T04:14:52.486Z,47.35
2022-10-14T04:17:22.723Z,48.85
2022-10-14T04:19:52.631Z,48.35
2022-10-14T04:22:23.973Z,48.40
2022-10-14T04:24:56.650Z,49.65
2022-10-14T04:27:26.225Z,48.13
2022-10-14T04:30:06.128Z,47.72
2022-10-14T04:32:47.195Z,48.20
2022-10-14T04:35:17.911Z,49.00
2022-10-14T04:37:51.303Z,46.63
2022-10-14T04:40:27.041Z,47.83
2022-10-14T04:42:58.795Z,46.22
2022-10-14T04:45:39.452Z,45.58
2022-10-14T04:48:11.175Z,43.38
2022-10-14T04:50:44.049Z,43.88
2022-10-14T04:53:42.451Z,42.78
2022-10-14T04:56:29.889Z,49.97
2022-10-14T04:59:05.009Z,57.78
2022-10-14T05:02:09.377Z,58.22
2022-10-14T05:04:48.501Z,66.57
2022-10-14T05:07:18.516Z,53.85
2022-10-14T05:09:55.482Z,46.40
2022-10-14T05:12:34.828Z,41.55
2022-10-14T05:15:07.242Z,40.78
2022-10-14T05:17:45.555Z,38.05
2022-10-14T05:20:18.052Z,39.78
2022-10-14T05:22:52.144Z,38.13
2022-10-14T05:25:21.627Z,38.13
2022-10-14T05:27:51.789Z,39.60
2022-10-14T05:30:20.854Z,39.20
2022-10-14T05:32:53.998Z,37.72
2022-10-14T05:35:46.330Z,36.85
2022-10-14T05:38:13.264Z,38.78
2022-10-14T05:40:52.127Z,37.40
2022-10-14T05:43:21.972Z,36.72
2022-10-14T05:45:51.448Z,41.67
2022-10-14T05:48:20.610Z,37.88
2022-10-14T05:50:50.759Z,37.60
2022-10-14T05:53:22.796Z,37.28
2022-10-14T05:56:06.549Z,36.20
2022-10-14T05:58:35.862Z,37.33
2022-10-14T06:01:07.658Z,37.20
2022-10-14T06:03:37.218Z,36.97
2022-10-14T06:06:07.022Z,36.92
2022-10-14T06:08:36.050Z,36.45
2022-10-14T06:11:07.192Z,36.50
2022-10-14T06:13:37.219Z,35.40
2022-10-14T06:16:10.980Z,34.10
2022-10-14T06:18:40.120Z,35.78
2022-10-14T06:21:09.247Z,34.97
2022-10-14T06:23:38.268Z,35.85
2022-10-14T06:26:09.837Z,35.60
2022-10-14T06:28:39.724Z,35.92
2022-10-14T06:31:08.794Z,38.85
2022-10-14T06:33:37.963Z,37.08
2022-10-14T06:36:08.067Z,39.45
2022-10-14T06:38:37.135Z,39.00
2022-10-14T06:41:06.150Z,36.25
2022-10-14T06:43:36.180Z,36.92
2022-10-14T06:46:06.346Z,33.75
2022-10-14T06:48:35.795Z,35.70
2022-10-14T06:51:07.063Z,32.55
2022-10-14T06:53:36.123Z,35.83
2022-10-14T06:56:08.069Z,35.15
2022-10-14T06:58:37.182Z,34.88
2022-10-14T07:01:07.591Z,33.15
2022-10-14T07:03:40.974Z,33.80
2022-10-14T07:06:10.574Z,34.88
2022-10-14T07:08:39.651Z,33.05
2022-10-14T07:11:09.070Z,34.22
2022-10-14T07:13:38.851Z,33.85
2022-10-14T07:16:08.039Z,33.80
2022-10-14T07:18:37.007Z,32.03
2022-10-14T07:21:07.097Z,35.10
2022-10-14T07:23:36.302Z,34.78
2022-10-14T07:26:05.542Z,35.17
2022-10-14T07:28:35.055Z,36.63
2022-10-14T07:31:10.550Z,35.92
2022-10-14T07:33:41.252Z,35.17
2022-10-14T07:36:15.132Z,36.92
2022-10-14T07:38:47.028Z,37.08
2022-10-14T07:41:22.641Z,100.90
2022-10-14T07:43:55.209Z,85.67
2022-10-14T07:46:35.428Z,51.38
2022-10-14T07:49:08.228Z,44.25
2022-10-14T07:51:37.896Z,37.95
2022-10-14T07:54:13.829Z,37.40
2022-10-14T07:56:46.721Z,37.88
2022-10-14T07:59:16.511Z,34.67
2022-10-14T08:01:48.681Z,35.10
2022-10-14T08:04:19.428Z,34.95
2022-10-14T08:06:54.672Z,35.08
2022-10-14T08:09:34.888Z,34.83
2022-10-14T08:12:04.582Z,35.33
2022-10-14T08:14:33.952Z,36.33
2022-10-14T08:17:10.919Z,35.78
2022-10-14T08:19:40.362Z,34.50
2022-10-14T08:22:12.376Z,35.85
2022-10-14T08:24:45.610Z,36.60
2022-10-14T08:27:17.186Z,37.17
2022-10-14T08:29:48.518Z,37.13
2022-10-14T08:32:21.505Z,38.13
2022-10-14T08:34:50.861Z,39.15
2022-10-14T08:37:20.115Z,38.85
2022-10-14T08:39:50.289Z,40.30
2022-10-14T08:42:25.065Z,38.90
2022-10-14T08:45:33.545Z,38.20
2022-10-14T08:48:13.344Z,43.25
2022-10-14T08:50:58.390Z,42.72
2022-10-14T08:53:41.401Z,42.65
2022-10-14T08:56:13.302Z,40.70
2022-10-14T08:58:52.293Z,38.75
2022-10-14T09:01:37.303Z,38.92
2022-10-14T09:04:08.910Z,39.55
2022-10-14T09:06:42.039Z,39.25
2022-10-14T09:09:23.779Z,37.22
2022-10-14T09:12:04.583Z,40.58
2022-10-14T09:14:38.322Z,39.92
2022-10-14T09:17:15.785Z,39.35
2022-10-14T09:20:16.437Z,39.35
2022-10-14T09:22:47.287Z,38.38
2022-10-14T09:25:18.930Z,39.47
2022-10-14T09:27:48.136Z,39.28
2022-10-14T09:30:22.015Z,39.45
2022-10-14T09:32:56.325Z,38.50
2022-10-14T09:35:34.606Z,39.38
2022-10-14T09:38:06.758Z,39.13
2022-10-14T09:40:38.016Z,38.63
2022-10-14T09:43:09.955Z,38.45
2022-10-14T09:46:08.688Z,39.15
2022-10-14T09:48:47.233Z,38.75
2022-10-14T09:51:30.104Z,39.60
2022-10-14T09:54:03.417Z,40.55
2022-10-14T09:56:43.572Z,37.72
2022-10-14T09:59:22.584Z,36.75
2022-10-14T10:01:54.091Z,37.45
2022-10-14T10:04:48.124Z,38.67
2022-10-14T10:07:30.479Z,38.88
2022-10-14T10:10:06.331Z,40.53
2022-10-14T10:12:36.790Z,39.30
2022-10-14T10:15:08.215Z,39.90
2022-10-14T10:17:41.568Z,39.08
2022-10-14T10:20:19.539Z,38.42
2022-10-14T10:22:48.668Z,38.22
2022-10-14T10:25:20.638Z,37.90
2022-10-14T10:27:50.444Z,38.05
2022-10-14T10:30:22.121Z,37.65
2022-10-14T10:32:56.661Z,38.42
2022-10-14T10:35:48.969Z,37.40
2022-10-14T10:38:32.745Z,38.88
2022-10-14T10:41:04.183Z,40.90
2022-10-14T10:44:09.959Z,38.40
2022-10-14T10:47:04.953Z,38.40
2022-10-14T10:50:15.382Z,39.78
2022-10-14T10:53:18.185Z,39.90
2022-10-14T10:55:55.967Z,39.92
2022-10-14T10:58:28.552Z,40.03
2022-10-14T11:01:25.319Z,40.63
2022-10-14T11:04:32.146Z,40.97
2022-10-14T11:07:49.101Z,41.90
2022-10-14T11:10:44.718Z,39.72
2022-10-14T11:13:37.929Z,38.05
2022-10-14T11:16:43.606Z,39.88
2022-10-14T11:19:42.054Z,40.53
2022-10-14T11:23:00.280Z,39.25
2022-10-14T11:26:12.635Z,37.83
2022-10-14T11:29:17.057Z,41.10
2022-10-14T11:32:05.086Z,38.42
2022-10-14T11:34:44.754Z,38.67
2022-10-14T11:37:40.248Z,39.20
2022-10-14T11:40:50.636Z,38.80
2022-10-14T11:43:25.710Z,38.60
2022-10-14T11:46:36.355Z,39.45
2022-10-14T11:49:21.013Z,37.13
2022-10-14T11:52:12.925Z,37.38
2022-10-14T11:54:48.623Z,37.58
2022-10-14T11:57:33.619Z,39.55
2022-10-14T12:00:06.814Z,36.70
2022-10-14T12:03:36.126Z,36.38
2022-10-14T12:06:44.886Z,37.30
2022-10-14T12:09:48.874Z,38.67
2022-10-14T12:12:21.024Z,37.05
2022-10-14T12:14:56.258Z,38.58
2022-10-14T12:17:47.458Z,36.50
2022-10-14T12:20:21.227Z,36.88
2022-10-14T12:22:51.594Z,36.53
2022-10-14T12:25:24.294Z,36.05
2022-10-14T12:27:54.448Z,36.30
2022-10-14T12:30:37.714Z,34.88
2022-10-14T12:33:22.655Z,35.03
2022-10-14T12:36:02.012Z,35.92
2022-10-14T12:38:35.338Z,34.47
2022-10-14T12:41:40.499Z,35.35
2022-10-14T12:44:19.524Z,36.30
2022-10-14T12:46:51.290Z,35.35
2022-10-14T12:49:29.807Z,35.47
2022-10-14T12:52:05.924Z,36.08
2022-10-14T12:54:38.438Z,35.20
2022-10-14T12:57:34.375Z,35.60
2022-10-14T13:00:27.501Z,35.37
2022-10-14T13:03:05.268Z,36.53
2022-10-14T13:05:38.724Z,35.67
2022-10-14T13:08:12.532Z,36.15
2022-10-14T13:10:46.108Z,35.58
2022-10-14T13:13:48.551Z,36.28
2022-10-14T13:16:26.378Z,34.47
2022-10-14T13:19:02.709Z,36.25
2022-10-14T13:21:37.827Z,36.53
2022-10-14T13:24:27.004Z,36.60
2022-10-14T13:26:56.326Z,35.05
2022-10-14T13:29:34.558Z,34.97
2022-10-14T13:32:22.690Z,37.08
2022-10-14T13:35:04.124Z,35.47
2022-10-14T13:37:44.823Z,35.17
2022-10-14T13:40:43.830Z,36.40
2022-10-14T13:43:22.260Z,35.42
2022-10-14T13:46:05.506Z,34.78
2022-10-14T13:48:38.561Z,35.17
2022-10-14T13:51:35.153Z,34.78
2022-10-14T13:56:40.222Z,32.92
2022-10-14T13:59:43.509Z,32.97
2022-10-14T14:02:21.970Z,32.35
2022-10-14T14:04:57.099Z,31.58
2022-10-14T14:10:25.453Z,30.73
2022-10-14T14:12:55.010Z,32.22
2022-10-14T14:15:30.036Z,30.80
2022-10-14T14:17:59.191Z,32.42
2022-10-14T14:20:30.333Z,32.85
2022-10-14T14:23:00.365Z,32.45
2022-10-14T14:25:34.546Z,32.33
2022-10-14T14:28:09.163Z,32.58
2022-10-14T14:30:40.682Z,32.63
2022-10-14T14:33:14.749Z,31.65
2022-10-14T14:35:53.857Z,30.15
2022-10-14T14:38:37.597Z,32.80
2022-10-14T14:41:18.713Z,31.45
2022-10-14T14:43:57.370Z,31.42
2022-10-14T14:46:42.489Z,32.47
2022-10-14T14:49:17.717Z,30.65
2022-10-14T14:51:47.378Z,30.10
2022-10-14T14:54:22.245Z,30.50
2022-10-14T14:57:03.441Z,31.65
2022-10-14T14:59:39.650Z,32.67
2022-10-14T15:02:23.381Z,32.17
2022-10-14T15:05:10.613Z,31.45
2022-10-14T15:07:44.585Z,31.23
2022-10-14T15:10:26.558Z,31.23
2022-10-14T15:12:58.686Z,31.27
2022-10-14T15:15:35.495Z,29.90
2022-10-14T15:18:08.141Z,32.65
2022-10-14T15:20:38.910Z,31.45
2022-10-14T15:23:41.819Z,31.52
2022-10-14T15:26:29.512Z,30.52
2022-10-14T15:32:15.446Z,31.05
2022-10-14T15:34:44.982Z,30.20
2022-10-14T15:37:14.739Z,29.67
2022-10-14T15:39:43.945Z,30.70
2022-10-14T15:42:13.932Z,29.88
2022-10-14T15:44:42.984Z,29.73
2022-10-14T15:47:23.235Z,30.95
2022-10-14T15:49:52.440Z,30.10
2022-10-14T15:52:24.432Z,29.10
2022-10-14T15:54:59.530Z,28.17
2022-10-14T15:57:28.750Z,28.25
2022-10-14T15:59:58.078Z,28.35
2022-10-14T16:02:34.346Z,29.50
2022-10-14T16:05:20.437Z,29.50
2022-10-14T16:07:50.733Z,30.08
2022-10-14T16:10:22.267Z,29.10
2022-10-14T16:12:51.728Z,29.45
2022-10-14T16:15:29.478Z,29.08
2022-10-14T16:17:59.189Z,28.70
2022-10-14T16:20:28.818Z,30.52
2022-10-14T16:22:59.214Z,28.88
2022-10-14T16:25:49.903Z,30.25
2022-10-14T16:28:20.358Z,27.50
2022-10-14T16:30:51.004Z,28.75
2022-10-14T16:33:25.019Z,27.95
2022-10-14T16:35:56.290Z,28.08
2022-10-14T16:38:25.807Z,28.23
2022-10-14T16:40:59.300Z,27.63
2022-10-14T16:43:29.565Z,29.00
2022-10-14T16:46:00.527Z,28.92
2022-10-14T16:48:30.196Z,26.65
2022-10-14T16:50:59.258Z,28.98
2022-10-14T16:53:42.422Z,27.23
2022-10-14T16:56:38.543Z,28.15
2022-10-14T16:59:09.080Z,29.42
2022-10-14T17:01:38.212Z,29.00
2022-10-14T17:04:14.778Z,28.83
2022-10-14T17:06:43.865Z,29.33
2022-10-14T17:09:17.122Z,29.42
2022-10-14T17:11:46.697Z,28.92
2022-10-14T17:14:19.209Z,29.65
2022-10-14T17:16:49.002Z,29.05
2022-10-14T17:19:18.300Z,29.65
2022-10-14T17:21:49.663Z,29.60
2022-10-14T17:24:18.916Z,30.95
2022-10-14T17:26:48.009Z,29.83
2022-10-14T17:29:17.054Z,29.02
2022-10-14T17:31:47.778Z,29.55
2022-10-14T17:34:16.954Z,30.02
2022-10-14T17:36:46.009Z,28.95
2022-10-14T17:39:21.282Z,28.92
2022-10-14T17:41:56.624Z,28.20
2022-10-14T17:44:25.742Z,27.88
2022-10-14T17:46:54.818Z,28.90
2022-10-14T17:49:23.818Z,29.30
2022-10-14T17:51:52.876Z,29.10
2022-10-14T17:54:21.921Z,28.52
2022-10-14T17:56:50.949Z,27.48
2022-10-14T17:59:19.986Z,27.95
2022-10-14T18:02:02.130Z,28.25
2022-10-14T18:04:33.239Z,27.83
2022-10-14T18:07:02.774Z,28.35
2022-10-14T18:09:31.764Z,27.60
2022-10-14T18:12:08.650Z,30.02
2022-10-14T18:14:41.312Z,29.70
2022-10-14T18:17:13.147Z,28.30
2022-10-14T18:19:46.136Z,28.77
2022-10-14T18:22:19.030Z,29.98
2022-10-14T18:24:48.322Z,30.52
2022-10-14T18:27:17.357Z,31.65
2022-10-14T18:29:46.619Z,33.42
2022-10-14T18:32:15.580Z,43.13
2022-10-14T18:34:47.627Z,50.05
2022-10-14T18:37:16.733Z,50.67
2022-10-14T18:39:45.707Z,53.63
2022-10-14T18:42:17.193Z,70.85
2022-10-14T18:44:49.171Z,78.65
2022-10-14T18:47:18.369Z,91.07
2022-10-14T18:49:50.413Z,92.18
2022-10-14T18:52:21.681Z,90.75
2022-10-14T18:54:51.103Z,89.32
2022-10-14T18:57:20.459Z,69.50
2022-10-14T18:59:52.071Z,66.43
2022-10-14T19:02:21.276Z,66.88
2022-10-14T19:04:50.467Z,69.85
2022-10-14T19:07:19.584Z,72.93
2022-10-14T19:09:51.864Z,71.03
2022-10-14T19:12:41.578Z,72.50
2022-10-14T19:15:11.961Z,68.97
2022-10-14T19:17:41.335Z,70.88
2022-10-14T19:20:10.691Z,74.47
2022-10-14T19:22:45.561Z,71.22
2022-10-14T19:25:14.651Z,58.70
2022-10-14T19:27:44.548Z,56.97
2022-10-14T19:30:14.102Z,53.22
2022-10-14T19:32:43.153Z,54.20
2022-10-14T19:35:12.160Z,47.88
2022-10-14T19:37:41.279Z,49.15
2022-10-14T19:40:10.624Z,50.53
2022-10-14T19:42:39.689Z,54.75
2022-10-14T19:45:08.949Z,51.38
2022-10-14T19:47:38.084Z,53.25
2022-10-14T19:50:07.772Z,57.65
2022-10-14T19:52:37.041Z,54.25
2022-10-14T19:55:06.923Z,56.30
2022-10-14T19:57:36.172Z,53.63
2022-10-14T20:00:05.601Z,55.28
2022-10-14T20:02:34.953Z,54.78
2022-10-14T20:05:04.295Z,58.90
2022-10-14T20:07:33.411Z,58.50
2022-10-14T20:10:03.180Z,61.72
2022-10-14T20:12:32.488Z,63.08
2022-10-14T20:15:01.448Z,63.10
2022-10-14T20:17:30.534Z,70.05
2022-10-14T20:19:59.722Z,68.03
2022-10-14T20:22:30.046Z,71.47
2022-10-14T20:24:59.427Z,67.97
2022-10-14T20:27:28.379Z,66.95
2022-10-14T20:29:57.568Z,71.38
2022-10-14T20:32:26.579Z,75.57
2022-10-14T20:34:55.695Z,83.50
2022-10-14T20:37:27.363Z,92.57
2022-10-14T20:39:57.362Z,87.93
2022-10-14T20:42:26.432Z,78.00
2022-10-14T20:44:55.665Z,79.57
2022-10-14T20:47:24.758Z,69.13
2022-10-14T20:49:54.133Z,74.00
2022-10-14T20:52:23.143Z,66.93
2022-10-14T20:54:52.245Z,69.75
2022-10-14T20:57:21.566Z,67.03
2022-10-14T20:59:50.798Z,81.30
2022-10-14T21:02:22.154Z,82.43
2022-10-14T21:04:54.712Z,70.55
2022-10-14T21:07:24.303Z,69.82
2022-10-14T21:09:53.678Z,73.15
2022-10-14T21:12:23.010Z,71.72
2022-10-14T21:14:52.251Z,72.32
2022-10-14T21:17:21.256Z,75.90
2022-10-14T21:19:50.542Z,82.97
2022-10-14T21:22:19.584Z,80.57
2022-10-14T21:24:49.338Z,80.70
2022-10-14T21:27:18.602Z,97.18
2022-10-14T21:29:50.629Z,103.57
2022-10-14T21:32:19.831Z,100.18
2022-10-14T21:34:48.863Z,97.38
2022-10-14T21:37:18.994Z,92.82
2022-10-14T21:39:48.370Z,91.72
2022-10-14T21:42:17.626Z,84.18
2022-10-14T21:44:46.878Z,78.35
2022-10-14T21:47:15.892Z,78.28
2022-10-14T21:49:45.233Z,79.95
2022-10-14T21:52:14.258Z,83.32
2022-10-14T21:54:43.517Z,82.82
2022-10-14T21:57:12.851Z,81.72
2022-10-14T21:59:42.051Z,83.90
2022-10-14T22:02:11.594Z,87.15
2022-10-14T22:04:41.630Z,88.47
2022-10-14T22:07:11.526Z,87.35
2022-10-14T22:09:40.767Z,93.05
2022-10-14T22:12:09.803Z,92.20
2022-10-14T22:14:38.995Z,92.13
2022-10-14T22:17:08.067Z,96.60
2022-10-14T22:19:37.110Z,100.35
2022-10-14T22:22:06.246Z,99.40
2022-10-14T22:24:35.647Z,99.47
2022-10-14T22:27:05.382Z,104.53
2022-10-14T22:29:34.813Z,105.70
2022-10-14T22:32:05.324Z,105.95
2022-10-14T22:34:34.687Z,101.55
2022-10-14T22:37:03.861Z,98.10
2022-10-14T22:39:33.196Z,96.45
2022-10-14T22:42:02.910Z,103.28
2022-10-14T22:44:32.019Z,103.00
2022-10-14T22:47:01.000Z,102.63
2022-10-14T22:49:30.759Z,99.63
2022-10-14T22:51:59.792Z,106.25
2022-10-14T22:54:30.735Z,102.70
2022-10-14T22:56:59.815Z,102.22
2022-10-14T22:59:30.500Z,97.32
2022-10-14T23:01:59.607Z,92.57
2022-10-14T23:04:30.560Z,91.13
2022-10-14T23:07:04.321Z,88.72
2022-10-14T23:12:09.493Z,79.35
2022-10-14T23:14:38.514Z,81.72
2022-10-14T23:17:07.549Z,79.43
2022-10-14T23:19:36.534Z,77.30
2022-10-14T23:22:05.664Z,75.07
2022-10-14T23:24:34.630Z,68.95
2022-10-14T23:27:05.890Z,69.38
2022-10-14T23:29:35.364Z,67.90
2022-10-14T23:32:04.802Z,65.65
2022-10-14T23:34:34.222Z,66.88
2022-10-14T23:37:03.734Z,67.03
2022-10-14T23:39:32.884Z,69.78
2022-10-14T23:42:02.558Z,59.03
2022-10-14T23:44:32.484Z,61.20
2022-10-14T23:47:01.665Z,58.72
2022-10-14T23:49:30.799Z,56.03
2022-10-14T23:52:00.129Z,47.10
2022-10-14T23:54:29.441Z,48.53
2022-10-14T23:56:58.818Z,57.80
2022-10-14T23:59:27.865Z,62.83
